createdAt,value
2018-12-29T00:00:40.566Z,106.00
2018-12-29T00:01:40.540Z,101.80
2018-12-29T00:02:40.521Z,103.00
2018-12-29T00:03:40.480Z,98.20
2018-12-29T00:04:40.459Z,107.00
2018-12-29T00:05:40.430Z,107.10
2018-12-29T00:06:40.406Z,103.40
2018-12-29T00:07:40.378Z,98.90
2018-12-29T00:08:40.367Z,107.40
2018-12-29T00:09:40.325Z,102.80
2018-12-29T00:10:40.309Z,102.90
2018-12-29T00:11:40.275Z,106.10
2018-12-29T00:12:40.253Z,106.00
2018-12-29T00:13:40.223Z,104.20
2018-12-29T00:14:40.202Z,108.40
2018-12-29T00:15:40.174Z,106.20
2018-12-29T00:16:40.147Z,107.90
2018-12-29T00:17:40.120Z,110.10
2018-12-29T00:18:40.097Z,104.30
2018-12-29T00:19:40.070Z,106.70
2018-12-29T00:20:40.042Z,100.10
2018-12-29T00:21:40.096Z,105.00
2018-12-29T00:22:39.993Z,110.40
2018-12-29T00:23:39.972Z,107.60
2018-12-29T00:24:39.942Z,109.30
2018-12-29T00:25:39.920Z,110.50
2018-12-29T00:26:39.892Z,114.70
2018-12-29T00:27:39.876Z,114.20
2018-12-29T00:28:39.836Z,107.70
2018-12-29T00:29:39.813Z,109.70
2018-12-29T00:30:39.790Z,113.80
2018-12-29T00:31:39.766Z,115.60
2018-12-29T00:32:39.738Z,113.10
2018-12-29T00:33:39.728Z,118.70
2018-12-29T00:34:39.685Z,113.10
2018-12-29T00:35:39.671Z,116.20
2018-12-29T00:36:39.630Z,116.80
2018-12-29T00:37:39.605Z,120.10
2018-12-29T00:38:39.582Z,124.20
2018-12-29T00:39:39.566Z,120.20
2018-12-29T00:40:39.532Z,120.30
2018-12-29T00:41:39.511Z,121.90
2018-12-29T00:42:39.478Z,128.00
2018-12-29T00:43:39.454Z,125.40
2018-12-29T00:44:39.429Z,122.10
2018-12-29T00:45:39.408Z,132.90
2018-12-29T00:46:39.380Z,132.30
2018-12-29T00:47:39.356Z,125.90
2018-12-29T00:48:39.329Z,126.00
2018-12-29T00:49:39.299Z,135.60
2018-12-29T00:50:39.279Z,123.10
2018-12-29T00:51:39.354Z,127.50
2018-12-29T00:52:39.222Z,142.20
2018-12-29T00:53:39.205Z,146.60
2018-12-29T00:54:39.167Z,143.10
2018-12-29T00:55:39.141Z,143.80
2018-12-29T00:56:39.117Z,135.80
2018-12-29T00:57:39.099Z,132.90
2018-12-29T00:58:39.065Z,143.20
2018-12-29T00:59:39.040Z,139.90
2018-12-29T01:00:39.018Z,148.40
2018-12-29T01:01:38.989Z,151.70
2018-12-29T01:02:38.967Z,146.80
2018-12-29T01:03:38.937Z,150.60
2018-12-29T01:04:38.912Z,154.20
2018-12-29T01:05:38.885Z,143.50
2018-12-29T01:06:38.861Z,151.80
2018-12-29T01:07:38.834Z,147.20
2018-12-29T01:08:38.808Z,139.60
2018-12-29T01:09:38.779Z,153.60
2018-12-29T01:10:38.758Z,150.50
2018-12-29T01:11:38.731Z,157.90
2018-12-29T01:12:38.711Z,155.00
2018-12-29T01:13:38.677Z,156.10
2018-12-29T01:14:38.660Z,140.70
2018-12-29T01:15:38.633Z,146.50
2018-12-29T01:16:38.601Z,154.30
2018-12-29T01:17:38.575Z,155.00
2018-12-29T01:18:38.550Z,146.00
2018-12-29T01:19:38.536Z,166.50
2018-12-29T01:20:38.497Z,161.10
2018-12-29T01:21:38.474Z,153.10
2018-12-29T01:22:38.453Z,158.10
2018-12-29T01:23:38.423Z,151.60
2018-12-29T01:24:38.403Z,157.30
2018-12-29T01:25:38.369Z,158.60
2018-12-29T01:26:38.344Z,157.90
2018-12-29T01:27:38.318Z,163.00
2018-12-29T01:28:38.292Z,144.40
2018-12-29T01:29:38.266Z,169.70
2018-12-29T01:30:38.239Z,172.20
2018-12-29T01:31:38.216Z,160.00
2018-12-29T01:32:38.187Z,156.60
2018-12-29T01:33:38.166Z,168.20
2018-12-29T01:34:38.145Z,173.40
2018-12-29T01:35:38.126Z,170.60
2018-12-29T01:36:38.085Z,168.30
2018-12-29T01:37:38.065Z,166.30
2018-12-29T01:38:38.035Z,154.40
2018-12-29T01:39:38.009Z,178.80
2018-12-29T01:40:37.988Z,167.20
2018-12-29T01:41:37.956Z,172.20
2018-12-29T01:42:37.932Z,166.30
2018-12-29T01:43:37.917Z,165.90
2018-12-29T01:44:37.885Z,164.00
2018-12-29T01:45:37.859Z,157.90
2018-12-29T01:46:37.830Z,164.50
2018-12-29T01:47:37.803Z,152.70
2018-12-29T01:48:37.780Z,159.10
2018-12-29T01:49:37.750Z,161.30
2018-12-29T01:50:37.726Z,157.90
2018-12-29T01:51:37.704Z,175.70
2018-12-29T01:52:37.675Z,154.60
2018-12-29T01:53:37.659Z,159.90
2018-12-29T01:54:37.628Z,169.90
2018-12-29T01:55:37.600Z,165.80
2018-12-29T01:56:37.571Z,164.20
2018-12-29T01:57:37.548Z,161.30
2018-12-29T01:58:37.524Z,168.60
2018-12-29T01:59:37.494Z,184.90
2018-12-29T02:00:37.468Z,174.50
2018-12-29T02:01:37.443Z,175.70
2018-12-29T02:02:37.417Z,178.80
2018-12-29T02:03:37.399Z,181.80
2018-12-29T02:04:37.369Z,185.00
2018-12-29T02:05:37.338Z,176.60
2018-12-29T02:06:37.316Z,178.40
2018-12-29T02:07:37.291Z,162.80
2018-12-29T02:08:37.266Z,167.40
2018-12-29T02:09:37.236Z,180.40
2018-12-29T02:10:37.219Z,177.10
2018-12-29T02:11:37.188Z,167.10
2018-12-29T02:12:37.160Z,167.00
2018-12-29T02:13:37.166Z,184.70
2018-12-29T02:14:37.111Z,173.60
2018-12-29T02:15:37.087Z,180.20
2018-12-29T02:16:37.058Z,166.60
2018-12-29T02:17:37.042Z,181.30
2018-12-29T02:18:37.016Z,169.00
2018-12-29T02:19:36.985Z,172.90
2018-12-29T02:20:36.957Z,181.10
2018-12-29T02:21:36.932Z,188.50
2018-12-29T02:22:36.910Z,175.40
2018-12-29T02:23:36.879Z,182.70
2018-12-29T02:24:36.862Z,170.10
2018-12-29T02:25:36.831Z,171.10
2018-12-29T02:26:36.803Z,158.10
2018-12-29T02:27:36.780Z,168.30
2018-12-29T02:28:36.758Z,178.60
2018-12-29T02:29:36.724Z,171.10
2018-12-29T02:30:36.699Z,179.70
2018-12-29T02:31:36.673Z,174.80
2018-12-29T02:32:36.650Z,178.20
2018-12-29T02:33:36.634Z,175.30
2018-12-29T02:34:36.602Z,186.30
2018-12-29T02:35:36.573Z,191.10
2018-12-29T02:36:36.546Z,190.60
2018-12-29T02:37:36.532Z,168.40
2018-12-29T02:38:36.493Z,173.40
2018-12-29T02:39:36.469Z,175.30
2018-12-29T02:40:36.452Z,177.50
2018-12-29T02:41:36.417Z,184.70
2018-12-29T02:42:36.391Z,175.40
2018-12-29T02:43:36.377Z,175.50
2018-12-29T02:44:36.339Z,171.30
2018-12-29T02:45:36.314Z,176.00
2018-12-29T02:46:36.286Z,166.30
2018-12-29T02:47:36.264Z,176.20
2018-12-29T02:48:36.236Z,181.60
2018-12-29T02:49:36.210Z,190.80
2018-12-29T02:50:36.186Z,176.10
2018-12-29T02:51:36.160Z,189.50
2018-12-29T02:52:36.147Z,183.20
2018-12-29T02:53:36.108Z,178.10
2018-12-29T02:54:36.085Z,169.80
2018-12-29T02:55:36.059Z,175.00
2018-12-29T02:56:36.032Z,181.70
2018-12-29T02:57:36.007Z,180.70
2018-12-29T02:58:35.988Z,182.20
2018-12-29T02:59:35.964Z,188.00
2018-12-29T03:00:35.947Z,166.20
2018-12-29T03:01:35.912Z,182.90
2018-12-29T03:02:35.878Z,192.90
2018-12-29T03:03:35.860Z,207.00
2018-12-29T03:04:35.831Z,193.50
2018-12-29T03:05:35.800Z,185.30
2018-12-29T03:06:35.781Z,186.20
2018-12-29T03:07:35.752Z,185.40
2018-12-29T03:08:35.724Z,181.80
2018-12-29T03:09:35.702Z,182.40
2018-12-29T03:10:35.673Z,186.10
2018-12-29T03:11:35.654Z,185.10
2018-12-29T03:12:35.630Z,192.50
2018-12-29T03:13:35.595Z,189.30
2018-12-29T03:14:35.632Z,186.70
2018-12-29T03:15:41.148Z,180.60
2018-12-29T03:16:35.521Z,179.00
2018-12-29T03:17:35.494Z,174.60
2018-12-29T03:18:35.471Z,178.90
2018-12-29T03:19:35.446Z,188.90
2018-12-29T03:20:35.426Z,196.70
2018-12-29T03:21:35.391Z,191.70
2018-12-29T03:22:35.366Z,180.80
2018-12-29T03:23:35.345Z,172.50
2018-12-29T03:24:35.318Z,180.00
2018-12-29T03:25:35.289Z,220.60
2018-12-29T03:26:35.280Z,199.20
2018-12-29T03:27:35.238Z,188.90
2018-12-29T03:28:35.219Z,194.70
2018-12-29T03:29:35.188Z,204.10
2018-12-29T03:30:35.173Z,188.30
2018-12-29T03:31:35.137Z,181.00
2018-12-29T03:32:35.110Z,186.80
2018-12-29T03:33:35.089Z,194.00
2018-12-29T03:34:35.057Z,177.60
2018-12-29T03:35:35.042Z,199.60
2018-12-29T03:36:35.007Z,182.90
2018-12-29T03:37:34.981Z,179.40
2018-12-29T03:38:34.958Z,173.60
2018-12-29T03:39:34.930Z,173.00
2018-12-29T03:40:34.904Z,200.20
2018-12-29T03:41:34.882Z,179.50
2018-12-29T03:42:34.960Z,206.30
2018-12-29T03:43:34.832Z,185.30
2018-12-29T03:44:34.803Z,176.30
2018-12-29T03:45:34.777Z,181.10
2018-12-29T03:46:34.756Z,195.90
2018-12-29T03:47:34.726Z,178.10
2018-12-29T03:48:34.700Z,178.60
2018-12-29T03:49:34.676Z,180.00
2018-12-29T03:50:34.657Z,179.20
2018-12-29T03:51:34.623Z,175.20
2018-12-29T03:52:34.600Z,192.60
2018-12-29T03:53:34.572Z,186.30
2018-12-29T03:54:34.549Z,174.20
2018-12-29T03:55:34.524Z,181.10
2018-12-29T03:56:34.502Z,193.80
2018-12-29T03:57:34.470Z,193.70
2018-12-29T03:58:34.448Z,189.40
2018-12-29T03:59:34.421Z,190.10
2018-12-29T04:00:34.397Z,191.70
2018-12-29T04:01:34.366Z,176.30
2018-12-29T04:02:34.343Z,184.80
2018-12-29T04:03:34.318Z,182.70
2018-12-29T04:04:34.288Z,183.40
2018-12-29T04:05:34.264Z,175.60
2018-12-29T04:06:34.239Z,180.10
2018-12-29T04:07:34.221Z,194.20
2018-12-29T04:08:34.188Z,179.30
2018-12-29T04:09:34.161Z,179.80
2018-12-29T04:10:34.137Z,170.90
2018-12-29T04:11:34.110Z,178.70
2018-12-29T04:12:34.085Z,178.30
2018-12-29T04:13:34.060Z,176.90
2018-12-29T04:14:34.041Z,187.20
2018-12-29T04:15:34.009Z,185.10
2018-12-29T04:16:33.981Z,186.40
2018-12-29T04:17:33.961Z,187.40
2018-12-29T04:18:33.932Z,184.50
2018-12-29T04:19:33.903Z,177.50
2018-12-29T04:20:33.877Z,182.60
2018-12-29T04:21:33.859Z,178.90
2018-12-29T04:22:33.836Z,184.70
2018-12-29T04:23:33.804Z,176.50
2018-12-29T04:24:33.776Z,172.60
2018-12-29T04:25:33.758Z,198.50
2018-12-29T04:26:33.724Z,182.50
2018-12-29T04:27:33.699Z,167.70
2018-12-29T04:28:33.673Z,180.10
2018-12-29T04:29:33.647Z,184.50
2018-12-29T04:30:33.620Z,175.30
2018-12-29T04:31:33.596Z,178.80
2018-12-29T04:32:33.571Z,173.10
2018-12-29T04:33:33.545Z,176.90
2018-12-29T04:34:33.520Z,189.50
2018-12-29T04:35:33.493Z,181.90
2018-12-29T04:36:33.470Z,190.30
2018-12-29T04:37:33.456Z,213.80
2018-12-29T04:38:33.417Z,186.60
2018-12-29T04:39:33.394Z,182.80
2018-12-29T04:40:33.367Z,181.50
2018-12-29T04:41:33.346Z,174.50
2018-12-29T04:42:33.315Z,169.50
2018-12-29T04:43:33.292Z,177.90
2018-12-29T04:44:33.262Z,179.20
2018-12-29T04:45:33.237Z,175.20
2018-12-29T04:46:33.211Z,168.90
2018-12-29T04:47:33.186Z,178.00
2018-12-29T04:48:33.157Z,162.80
2018-12-29T04:49:33.133Z,152.00
2018-12-29T04:50:33.105Z,151.10
2018-12-29T04:51:33.083Z,154.90
2018-12-29T04:52:33.057Z,166.90
2018-12-29T04:53:33.032Z,159.10
2018-12-29T04:54:33.005Z,156.30
2018-12-29T04:55:32.979Z,175.40
2018-12-29T04:56:32.952Z,158.60
2018-12-29T04:57:32.928Z,165.70
2018-12-29T04:58:32.902Z,156.10
2018-12-29T04:59:32.877Z,154.30
2018-12-29T05:00:32.848Z,147.60
2018-12-29T05:01:32.831Z,157.20
2018-12-29T05:02:32.809Z,167.00
2018-12-29T05:03:32.773Z,168.40
2018-12-29T05:04:32.748Z,167.30
2018-12-29T05:05:32.731Z,150.70
2018-12-29T05:06:32.698Z,156.70
2018-12-29T05:07:32.675Z,159.00
2018-12-29T05:08:32.644Z,164.30
2018-12-29T05:09:32.621Z,153.40
2018-12-29T05:10:32.592Z,155.10
2018-12-29T05:11:32.569Z,158.90
2018-12-29T05:12:32.543Z,161.40
2018-12-29T05:13:32.518Z,160.00
2018-12-29T05:14:32.491Z,152.90
2018-12-29T05:15:32.466Z,159.90
2018-12-29T05:16:32.441Z,165.90
2018-12-29T05:17:32.418Z,163.70
2018-12-29T05:18:32.392Z,154.20
2018-12-29T05:19:32.366Z,158.30
2018-12-29T05:20:32.338Z,169.10
2018-12-29T05:21:32.312Z,180.70
2018-12-29T05:22:32.287Z,159.10
2018-12-29T05:23:32.261Z,176.70
2018-12-29T05:24:32.235Z,162.50
2018-12-29T05:25:32.210Z,154.10
2018-12-29T05:26:32.185Z,173.50
2018-12-29T05:27:32.159Z,186.70
2018-12-29T05:28:32.132Z,173.60
2018-12-29T05:29:32.110Z,158.60
2018-12-29T05:30:32.086Z,160.10
2018-12-29T05:31:32.055Z,162.40
2018-12-29T05:32:32.029Z,156.00
2018-12-29T05:33:32.004Z,166.00
2018-12-29T05:34:31.978Z,182.10
2018-12-29T05:35:31.953Z,184.70
2018-12-29T05:36:31.930Z,165.80
2018-12-29T05:37:31.900Z,160.90
2018-12-29T05:38:31.875Z,173.10
2018-12-29T05:39:31.849Z,174.80
2018-12-29T05:40:31.828Z,171.70
2018-12-29T05:41:31.803Z,161.00
2018-12-29T05:42:31.776Z,168.00
2018-12-29T05:43:31.748Z,163.50
2018-12-29T05:44:31.722Z,164.30
2018-12-29T05:45:31.697Z,156.40
2018-12-29T05:46:31.674Z,162.20
2018-12-29T05:47:31.648Z,150.60
2018-12-29T05:48:31.620Z,157.20
2018-12-29T05:49:31.595Z,156.20
2018-12-29T05:50:31.568Z,147.90
2018-12-29T05:51:31.544Z,161.20
2018-12-29T05:52:31.517Z,153.20
2018-12-29T05:53:31.493Z,162.40
2018-12-29T05:54:31.475Z,166.70
2018-12-29T05:55:31.440Z,159.70
2018-12-29T05:56:31.416Z,154.40
2018-12-29T05:57:31.391Z,160.70
2018-12-29T05:58:31.365Z,168.40
2018-12-29T05:59:31.341Z,171.40
2018-12-29T06:00:31.312Z,183.70
2018-12-29T06:01:31.294Z,168.90
2018-12-29T06:02:31.265Z,177.60
2018-12-29T06:03:31.237Z,161.20
2018-12-29T06:04:31.216Z,161.40
2018-12-29T06:05:31.186Z,171.60
2018-12-29T06:06:31.161Z,176.50
2018-12-29T06:07:31.133Z,171.60
2018-12-29T06:08:31.114Z,165.60
2018-12-29T06:09:31.082Z,173.30
2018-12-29T06:10:31.058Z,166.30
2018-12-29T06:11:31.032Z,175.00
2018-12-29T06:12:31.012Z,171.80
2018-12-29T06:13:30.979Z,181.70
2018-12-29T06:14:30.954Z,184.20
2018-12-29T06:15:30.932Z,184.00
2018-12-29T06:16:30.904Z,191.80
2018-12-29T06:17:30.881Z,178.40
2018-12-29T06:18:30.853Z,174.40
2018-12-29T06:19:30.828Z,181.50
2018-12-29T06:20:30.800Z,174.80
2018-12-29T06:21:30.775Z,186.80
2018-12-29T06:22:30.750Z,172.90
2018-12-29T06:23:30.725Z,181.50
2018-12-29T06:24:30.697Z,198.50
2018-12-29T06:25:30.673Z,181.60
2018-12-29T06:26:30.647Z,192.50
2018-12-29T06:27:30.622Z,194.80
2018-12-29T06:28:30.595Z,199.70
2018-12-29T06:29:30.570Z,219.70
2018-12-29T06:30:30.544Z,215.10
2018-12-29T06:31:30.520Z,209.20
2018-12-29T06:32:30.493Z,217.20
2018-12-29T06:33:30.468Z,193.80
2018-12-29T06:34:30.441Z,205.80
2018-12-29T06:35:30.419Z,204.30
2018-12-29T06:36:30.391Z,190.60
2018-12-29T06:37:30.364Z,221.50
2018-12-29T06:38:30.338Z,220.70
2018-12-29T06:39:30.315Z,204.70
2018-12-29T06:40:30.289Z,196.60
2018-12-29T06:41:30.263Z,207.80
2018-12-29T06:42:30.240Z,232.10
2018-12-29T06:43:30.212Z,220.30
2018-12-29T06:44:30.193Z,230.20
2018-12-29T06:45:30.161Z,212.10
2018-12-29T06:46:34.955Z,228.50
2018-12-29T06:47:30.112Z,228.30
2018-12-29T06:48:30.088Z,240.20
2018-12-29T06:49:30.059Z,232.10
2018-12-29T06:50:30.032Z,221.60
2018-12-29T06:51:30.007Z,225.70
2018-12-29T06:52:29.982Z,230.60
2018-12-29T06:53:29.955Z,230.60
2018-12-29T06:54:29.933Z,239.70
2018-12-29T06:55:29.910Z,230.50
2018-12-29T06:56:29.881Z,234.70
2018-12-29T06:57:29.855Z,231.30
2018-12-29T06:58:29.830Z,245.80
2018-12-29T06:59:29.813Z,232.20
2018-12-29T07:00:29.778Z,250.40
2018-12-29T07:01:29.753Z,238.30
2018-12-29T07:02:29.729Z,238.20
2018-12-29T07:03:29.703Z,270.60
2018-12-29T07:04:29.678Z,255.90
2018-12-29T07:05:29.651Z,250.00
2018-12-29T07:06:29.628Z,274.00
2018-12-29T07:07:29.603Z,242.40
2018-12-29T07:08:29.575Z,220.20
2018-12-29T07:09:29.549Z,260.20
2018-12-29T07:10:29.524Z,222.50
2018-12-29T07:11:29.501Z,219.00
2018-12-29T07:12:29.473Z,241.40
2018-12-29T07:13:29.448Z,216.30
2018-12-29T07:14:29.421Z,243.40
2018-12-29T07:15:29.396Z,245.00
2018-12-29T07:16:29.371Z,224.30
2018-12-29T07:17:29.361Z,241.60
2018-12-29T07:18:29.321Z,220.10
2018-12-29T07:19:29.294Z,241.20
2018-12-29T07:20:29.268Z,247.80
2018-12-29T07:21:29.246Z,260.50
2018-12-29T07:22:29.220Z,238.40
2018-12-29T07:23:29.201Z,223.70
2018-12-29T07:24:29.179Z,247.70
2018-12-29T07:25:29.144Z,223.40
2018-12-29T07:26:29.115Z,249.10
2018-12-29T07:27:29.092Z,246.30
2018-12-29T07:28:29.063Z,246.20
2018-12-29T07:29:29.039Z,229.40
2018-12-29T07:30:29.021Z,237.10
2018-12-29T07:31:28.993Z,239.40
2018-12-29T07:32:28.963Z,259.50
2018-12-29T07:33:28.937Z,297.20
2018-12-29T07:34:28.911Z,270.70
2018-12-29T07:35:28.885Z,238.10
2018-12-29T07:36:28.865Z,267.50
2018-12-29T07:37:28.837Z,240.60
2018-12-29T07:38:28.810Z,245.60
2018-12-29T07:39:28.787Z,242.70
2018-12-29T07:40:28.759Z,224.90
2018-12-29T07:41:28.734Z,257.60
2018-12-29T07:42:28.714Z,244.40
2018-12-29T07:43:28.683Z,241.50
2018-12-29T07:44:28.658Z,245.50
2018-12-29T07:45:28.632Z,272.50
2018-12-29T07:46:28.610Z,280.90
2018-12-29T07:47:28.593Z,230.40
2018-12-29T07:48:28.556Z,246.10
2018-12-29T07:49:28.535Z,245.90
2018-12-29T07:50:28.507Z,261.40
2018-12-29T07:51:28.480Z,259.70
2018-12-29T07:52:28.458Z,242.70
2018-12-29T07:53:28.426Z,264.40
2018-12-29T07:54:28.402Z,261.90
2018-12-29T07:55:28.381Z,247.70
2018-12-29T07:56:28.350Z,250.30
2018-12-29T07:57:28.326Z,245.70
2018-12-29T07:58:28.299Z,279.80
2018-12-29T07:59:28.284Z,310.00
2018-12-29T08:00:28.253Z,264.90
2018-12-29T08:01:28.223Z,256.30
2018-12-29T08:02:28.198Z,238.50
2018-12-29T08:03:28.173Z,274.30
2018-12-29T08:04:28.150Z,264.00
2018-12-29T08:05:28.128Z,235.10
2018-12-29T08:06:28.098Z,263.00
2018-12-29T08:07:28.075Z,267.50
2018-12-29T08:08:28.052Z,243.40
2018-12-29T08:09:28.023Z,254.10
2018-12-29T08:10:28.005Z,265.00
2018-12-29T08:11:27.972Z,242.10
2018-12-29T08:12:27.947Z,252.90
2018-12-29T08:13:27.919Z,245.80
2018-12-29T08:14:27.899Z,267.30
2018-12-29T08:15:27.872Z,230.50
2018-12-29T08:16:27.846Z,237.20
2018-12-29T08:17:27.818Z,253.80
2018-12-29T08:18:27.793Z,257.90
2018-12-29T08:19:27.839Z,254.00
2018-12-29T08:20:27.741Z,260.20
2018-12-29T08:21:27.737Z,274.80
2018-12-29T08:22:27.691Z,254.70
2018-12-29T08:23:27.668Z,290.10
2018-12-29T08:24:27.647Z,266.20
2018-12-29T08:25:27.616Z,262.40
2018-12-29T08:26:27.590Z,268.20
2018-12-29T08:27:27.586Z,241.20
2018-12-29T08:28:27.546Z,272.30
2018-12-29T08:29:27.519Z,278.40
2018-12-29T08:30:27.488Z,278.50
2018-12-29T08:31:27.468Z,312.10
2018-12-29T08:32:27.437Z,257.30
2018-12-29T08:33:27.412Z,278.10
2018-12-29T08:34:27.395Z,263.20
2018-12-29T08:35:27.366Z,285.10
2018-12-29T08:36:27.337Z,270.20
2018-12-29T08:37:27.309Z,270.80
2018-12-29T08:38:27.289Z,313.30
2018-12-29T08:39:27.263Z,274.50
2018-12-29T08:40:27.263Z,287.10
2018-12-29T08:41:27.212Z,258.70
2018-12-29T08:42:27.189Z,267.60
2018-12-29T08:43:27.157Z,282.20
2018-12-29T08:44:27.134Z,285.50
2018-12-29T08:45:27.107Z,266.30
2018-12-29T08:46:27.086Z,275.20
2018-12-29T08:47:27.068Z,272.60
2018-12-29T08:48:27.042Z,283.10
2018-12-29T08:49:27.008Z,268.20
2018-12-29T08:50:26.990Z,268.40
2018-12-29T08:51:26.956Z,278.70
2018-12-29T08:52:26.931Z,296.10
2018-12-29T08:53:26.911Z,278.60
2018-12-29T08:54:26.890Z,282.40
2018-12-29T08:55:26.855Z,274.10
2018-12-29T08:56:26.836Z,298.70
2018-12-29T08:57:26.804Z,278.90
2018-12-29T08:58:26.779Z,289.50
2018-12-29T08:59:26.766Z,331.90
2018-12-29T09:00:26.740Z,285.10
2018-12-29T09:01:26.705Z,267.80
2018-12-29T09:02:26.685Z,306.30
2018-12-29T09:03:26.653Z,261.80
2018-12-29T09:04:26.627Z,291.20
2018-12-29T09:05:26.601Z,279.10
2018-12-29T09:06:26.575Z,269.60
2018-12-29T09:07:26.552Z,272.90
2018-12-29T09:08:26.524Z,271.80
2018-12-29T09:09:26.499Z,266.70
2018-12-29T09:10:26.475Z,302.20
2018-12-29T09:11:26.450Z,271.00
2018-12-29T09:12:26.424Z,277.40
2018-12-29T09:13:26.399Z,290.70
2018-12-29T09:14:26.373Z,273.80
2018-12-29T09:15:26.350Z,287.40
2018-12-29T09:16:26.325Z,258.70
2018-12-29T09:17:26.304Z,265.70
2018-12-29T09:18:26.282Z,302.50
2018-12-29T09:19:27.345Z,291.00
2018-12-29T09:20:26.228Z,274.90
2018-12-29T09:21:26.204Z,283.00
2018-12-29T09:22:26.173Z,285.80
2018-12-29T09:23:26.146Z,265.30
2018-12-29T09:24:26.123Z,271.10
2018-12-29T09:25:26.115Z,286.40
2018-12-29T09:26:26.089Z,272.80
2018-12-29T09:27:26.047Z,293.00
2018-12-29T09:28:26.022Z,285.50
2018-12-29T09:29:25.996Z,284.30
2018-12-29T09:30:25.970Z,268.40
2018-12-29T09:31:25.954Z,288.90
2018-12-29T09:32:25.921Z,297.30
2018-12-29T09:33:25.897Z,286.50
2018-12-29T09:34:25.876Z,265.20
2018-12-29T09:35:25.845Z,269.70
2018-12-29T09:36:25.825Z,262.20
2018-12-29T09:37:25.794Z,279.80
2018-12-29T09:38:25.772Z,273.50
2018-12-29T09:39:25.745Z,273.40
2018-12-29T09:40:25.723Z,270.00
2018-12-29T09:41:25.693Z,278.60
2018-12-29T09:42:25.668Z,274.20
2018-12-29T09:43:25.642Z,268.60
2018-12-29T09:44:25.617Z,291.20
2018-12-29T09:45:25.591Z,279.00
2018-12-29T09:46:25.575Z,259.00
2018-12-29T09:47:25.543Z,294.30
2018-12-29T09:48:25.515Z,269.90
2018-12-29T09:49:25.493Z,270.50
2018-12-29T09:50:25.475Z,286.50
2018-12-29T09:51:25.441Z,264.20
2018-12-29T09:52:25.416Z,291.00
2018-12-29T09:53:25.392Z,289.60
2018-12-29T09:54:25.385Z,268.90
2018-12-29T09:55:25.347Z,271.20
2018-12-29T09:56:25.328Z,272.60
2018-12-29T09:57:25.289Z,258.20
2018-12-29T09:58:25.268Z,273.90
2018-12-29T09:59:25.242Z,266.40
2018-12-29T10:00:25.216Z,269.40
2018-12-29T10:01:25.193Z,277.20
2018-12-29T10:02:25.182Z,264.90
2018-12-29T10:03:25.145Z,281.50
2018-12-29T10:04:25.124Z,266.50
2018-12-29T10:05:25.096Z,284.80
2018-12-29T10:06:25.068Z,268.50
2018-12-29T10:07:25.043Z,284.70
2018-12-29T10:08:25.015Z,269.20
2018-12-29T10:09:24.991Z,268.20
2018-12-29T10:10:24.969Z,268.10
2018-12-29T10:11:24.945Z,284.90
2018-12-29T10:12:24.915Z,311.20
2018-12-29T10:13:24.896Z,275.80
2018-12-29T10:14:24.870Z,272.00
2018-12-29T10:15:24.849Z,297.30
2018-12-29T10:16:24.815Z,283.60
2018-12-29T10:17:26.973Z,271.20
2018-12-29T10:18:24.761Z,279.50
2018-12-29T10:19:24.738Z,284.70
2018-12-29T10:20:24.719Z,274.10
2018-12-29T10:21:24.687Z,284.20
2018-12-29T10:22:24.663Z,290.10
2018-12-29T10:23:24.640Z,299.00
2018-12-29T10:24:24.623Z,280.50
2018-12-29T10:25:24.585Z,300.50
2018-12-29T10:26:24.565Z,269.00
2018-12-29T10:27:24.548Z,263.00
2018-12-29T10:28:24.512Z,278.40
2018-12-29T10:29:24.494Z,281.80
2018-12-29T10:30:24.476Z,272.40
2018-12-29T10:31:24.437Z,269.80
2018-12-29T10:32:24.420Z,260.30
2018-12-29T10:33:24.393Z,278.10
2018-12-29T10:34:24.367Z,275.10
2018-12-29T10:35:24.338Z,257.30
2018-12-29T10:36:24.310Z,264.30
2018-12-29T10:37:24.293Z,267.50
2018-12-29T10:38:24.266Z,267.80
2018-12-29T10:39:24.241Z,264.60
2018-12-29T10:40:24.214Z,262.00
2018-12-29T10:41:24.183Z,255.10
2018-12-29T10:42:24.159Z,265.80
2018-12-29T10:43:24.135Z,269.20
2018-12-29T10:44:24.108Z,253.90
2018-12-29T10:45:24.087Z,257.30
2018-12-29T10:46:24.058Z,268.80
2018-12-29T10:47:24.039Z,263.90
2018-12-29T10:48:24.018Z,249.20
2018-12-29T10:49:23.983Z,250.90
2018-12-29T10:50:23.968Z,248.30
2018-12-29T10:51:23.934Z,245.60
2018-12-29T10:52:23.916Z,242.70
2018-12-29T10:53:23.883Z,244.20
2018-12-29T10:54:23.861Z,231.20
2018-12-29T10:55:23.841Z,249.10
2018-12-29T10:56:23.814Z,258.30
2018-12-29T10:57:23.788Z,241.20
2018-12-29T10:58:23.764Z,233.90
2018-12-29T10:59:23.753Z,232.00
2018-12-29T11:00:23.712Z,229.10
2018-12-29T11:01:23.684Z,221.80
2018-12-29T11:02:23.663Z,231.70
2018-12-29T11:03:23.634Z,214.30
2018-12-29T11:04:23.614Z,218.80
2018-12-29T11:05:23.597Z,238.60
2018-12-29T11:06:23.558Z,213.40
2018-12-29T11:07:23.559Z,214.50
2018-12-29T11:08:23.507Z,224.50
2018-12-29T11:09:23.483Z,229.20
2018-12-29T11:10:23.459Z,202.40
2018-12-29T11:11:23.433Z,207.40
2018-12-29T11:12:23.407Z,198.60
2018-12-29T11:13:23.390Z,193.70
2018-12-29T11:14:23.375Z,201.40
2018-12-29T11:15:23.340Z,196.00
2018-12-29T11:16:23.312Z,200.30
2018-12-29T11:17:23.285Z,185.70
2018-12-29T11:18:23.262Z,193.60
2018-12-29T11:19:23.237Z,187.50
2018-12-29T11:20:23.215Z,201.30
2018-12-29T11:21:23.203Z,182.90
2018-12-29T11:22:23.162Z,180.80
2018-12-29T11:23:23.142Z,181.80
2018-12-29T11:24:23.110Z,175.50
2018-12-29T11:25:23.085Z,184.80
2018-12-29T11:26:23.062Z,181.30
2018-12-29T11:27:23.043Z,179.00
2018-12-29T11:28:23.010Z,161.70
2018-12-29T11:29:22.984Z,170.50
2018-12-29T11:30:22.974Z,178.50
2018-12-29T11:31:22.941Z,177.50
2018-12-29T11:32:22.911Z,176.60
2018-12-29T11:33:22.889Z,178.40
2018-12-29T11:34:22.871Z,173.10
2018-12-29T11:35:28.785Z,179.40
2018-12-29T11:36:22.814Z,182.80
2018-12-29T11:37:22.791Z,162.20
2018-12-29T11:38:22.771Z,162.90
2018-12-29T11:39:22.740Z,160.40
2018-12-29T11:40:22.718Z,152.90
2018-12-29T11:41:24.004Z,157.70
2018-12-29T11:42:22.669Z,146.40
2018-12-29T11:43:22.643Z,155.50
2018-12-29T11:44:22.624Z,159.00
2018-12-29T11:45:22.595Z,155.90
2018-12-29T11:46:22.576Z,146.50
2018-12-29T11:47:22.541Z,144.40
2018-12-29T11:48:22.519Z,152.50
2018-12-29T11:49:22.491Z,145.20
2018-12-29T11:50:22.469Z,141.40
2018-12-29T11:51:22.448Z,140.30
2018-12-29T11:52:22.419Z,135.70
2018-12-29T11:53:22.395Z,135.60
2018-12-29T11:54:22.373Z,143.40
2018-12-29T11:55:22.347Z,134.20
2018-12-29T11:56:22.322Z,133.00
2018-12-29T11:57:22.294Z,137.20
2018-12-29T11:58:22.266Z,139.30
2018-12-29T11:59:22.246Z,126.70
2018-12-29T12:00:22.217Z,129.90
2018-12-29T12:01:22.196Z,123.90
2018-12-29T12:02:24.564Z,115.00
2018-12-29T12:03:22.152Z,119.20
2018-12-29T12:04:22.127Z,119.50
2018-12-29T12:05:22.100Z,119.10
2018-12-29T12:06:22.071Z,114.00
2018-12-29T12:07:22.047Z,119.50
2018-12-29T12:08:22.027Z,114.40
2018-12-29T12:09:21.996Z,108.00
2018-12-29T12:10:21.979Z,115.30
2018-12-29T12:11:21.948Z,112.60
2018-12-29T12:12:21.922Z,103.40
2018-12-29T12:13:21.904Z,109.40
2018-12-29T12:14:21.873Z,102.40
2018-12-29T12:15:21.860Z,108.40
2018-12-29T12:16:21.822Z,110.10
2018-12-29T12:17:21.802Z,103.40
2018-12-29T12:18:21.792Z,106.30
2018-12-29T12:19:21.755Z,99.50
2018-12-29T12:20:21.736Z,96.50
2018-12-29T12:21:21.700Z,100.10
2018-12-29T12:22:21.678Z,96.60
2018-12-29T12:23:21.703Z,93.00
2018-12-29T12:24:21.640Z,93.30
2018-12-29T12:25:21.600Z,97.70
2018-12-29T12:26:21.577Z,97.90
2018-12-29T12:27:21.554Z,95.10
2018-12-29T12:28:21.529Z,98.40